Time;durP1;ratioP1;P1;durP2;ratioP2;P2;SDS_P1;SDS_P2;PMS_P1;PMS_P2;Temp;Humidity;BMP_temperature;BMP_pressure;BME280_temperature;BME280_humidity;BME280_pressure;Samples;Min_cycle;Max_cycle;Signal;HPM_P1;HPM_P2
2023/01/27 00:00:32;;;;;;;18.75;2.10;;;;;;;;;;4984637;28;20030;-71
2023/01/27 00:02:57;;;;;;;22.13;3.22;;;;;;;;;;4982977;28;20033;-71
2023/01/27 00:05:22;;;;;;;20.67;2.40;;;;;;;;;;4982814;28;20110;-71
2023/01/27 00:07:48;;;;;;;18.40;2.45;;;;;;;;;;4987860;28;20034;-71
2023/01/27 00:10:14;;;;;;;21.77;2.90;;;;;;;;;;4970380;28;20026;-73
2023/01/27 00:15:26;;;;;;;21.00;3.33;;;;;;;;;;4988262;28;20037;-73
2023/01/27 00:17:52;;;;;;;14.25;1.92;;;;;;;;;;4988338;28;20030;-74
2023/01/27 00:24:34;;;;;;;14.77;2.65;;;;;;;;;;4970460;28;20023;-71
2023/01/27 00:25:49;;;;;;;16.95;2.30;;;;;;;;;;4987833;28;20034;-72
2023/01/27 00:28:21;;;;;;;14.10;2.10;;;;;;;;;;4987399;28;20038;-71
2023/01/27 00:30:50;;;;;;;13.80;1.90;;;;;;;;;;4986188;28;20158;-70
2023/01/27 00:33:24;;;;;;;15.35;2.33;;;;;;;;;;4987545;28;20525;-70
2023/01/27 00:35:54;;;;;;;11.13;2.10;;;;;;;;;;4987747;28;20035;-71
2023/01/27 00:38:20;;;;;;;17.05;2.15;;;;;;;;;;4987814;28;20434;-70
2023/01/27 00:41:14;;;;;;;18.20;2.53;;;;;;;;;;4987577;28;20084;-72
2023/01/27 00:43:30;;;;;;;12.32;2.20;;;;;;;;;;4987452;28;20108;-71
2023/01/27 00:45:56;;;;;;;17.83;2.38;;;;;;;;;;4988022;28;20550;-72
2023/01/27 00:48:21;;;;;;;14.52;2.13;;;;;;;;;;4994957;28;20519;-71
2023/01/27 00:50:46;;;;;;;19.48;2.47;;;;;;;;;;4986042;28;20053;-71
2023/01/27 00:53:12;;;;;;;14.75;1.98;;;;;;;;;;4987157;28;20045;-71
2023/01/27 00:55:40;;;;;;;13.45;1.80;;;;;;;;;;4987713;28;20037;-72
2023/01/27 00:58:08;;;;;;;14.88;2.15;;;;;;;;;;4985561;28;20027;-71
2023/01/27 01:00:33;;;;;;;15.07;1.83;;;;;;;;;;4985255;28;20110;-71
2023/01/27 01:02:58;;;;;;;14.35;2.35;;;;;;;;;;4987424;28;20117;-71
2023/01/27 01:05:23;;;;;;;13.15;1.85;;;;;;;;;;4985759;28;20061;-71
2023/01/27 01:07:51;;;;;;;14.43;2.65;;;;;;;;;;4985505;28;20476;-72
2023/01/27 01:10:19;;;;;;;10.70;2.28;;;;;;;;;;4969284;28;20042;-72
2023/01/27 01:12:44;;;;;;;14.65;2.60;;;;;;;;;;4987091;28;20054;-71
2023/01/27 01:15:10;;;;;;;13.18;2.65;;;;;;;;;;4987489;28;20074;-71
2023/01/27 01:17:37;;;;;;;8.63;1.83;;;;;;;;;;4986231;28;20038;-71
2023/01/27 01:20:03;;;;;;;10.95;1.73;;;;;;;;;;4986232;28;20361;-71
2023/01/27 01:22:28;;;;;;;9.40;1.80;;;;;;;;;;4986242;28;20030;-71
2023/01/27 01:24:53;;;;;;;10.20;2.00;;;;;;;;;;4985444;28;21366;-71
2023/01/27 01:27:19;;;;;;;13.38;1.90;;;;;;;;;;4984732;28;20036;-71
2023/01/27 01:29:44;;;;;;;13.60;2.15;;;;;;;;;;4985333;28;20026;-71
2023/01/27 01:32:11;;;;;;;9.25;1.83;;;;;;;;;;4984917;28;20085;-71
2023/01/27 01:34:37;;;;;;;6.85;1.70;;;;;;;;;;4986969;28;20045;-71
2023/01/27 01:37:02;;;;;;;14.48;2.50;;;;;;;;;;4984877;28;20030;-71
2023/01/27 01:39:28;;;;;;;14.00;3.08;;;;;;;;;;4985479;28;20041;-70
2023/01/27 01:41:53;;;;;;;14.93;2.67;;;;;;;;;;4984745;28;20034;-70
2023/01/27 01:44:23;;;;;;;9.48;2.20;;;;;;;;;;4986744;28;20023;-75
2023/01/27 01:46:48;;;;;;;10.65;2.28;;;;;;;;;;5002256;28;20030;-75
2023/01/27 01:49:16;;;;;;;11.00;2.50;;;;;;;;;;4986501;28;20578;-75
2023/01/27 01:51:45;;;;;;;13.05;3.40;;;;;;;;;;4986418;28;20058;-73
2023/01/27 01:54:13;;;;;;;10.05;3.00;;;;;;;;;;4986419;28;20034;-72
2023/01/27 01:56:45;;;;;;;12.63;2.88;;;;;;;;;;4986890;28;20277;-73
2023/01/27 01:59:14;;;;;;;10.80;2.78;;;;;;;;;;4986462;28;20458;-73
2023/01/27 02:01:39;;;;;;;10.45;2.95;;;;;;;;;;4984288;28;20038;-73
2023/01/27 02:04:10;;;;;;;12.10;3.10;;;;;;;;;;4986222;28;20023;-73
2023/01/27 02:06:41;;;;;;;11.60;3.33;;;;;;;;;;4986082;28;20034;-73
2023/01/27 02:09:06;;;;;;;12.23;3.97;;;;;;;;;;4967939;28;20048;-73
2023/01/27 02:11:34;;;;;;;11.32;4.82;;;;;;;;;;4984582;28;20121;-70
2023/01/27 02:14:00;;;;;;;13.85;5.78;;;;;;;;;;4985656;28;20110;-71
2023/01/27 02:16:26;;;;;;;15.57;6.68;;;;;;;;;;4984158;28;20034;-71
2023/01/27 02:18:51;;;;;;;13.75;7.00;;;;;;;;;;4986110;28;20396;-70
2023/01/27 02:21:17;;;;;;;17.83;7.68;;;;;;;;;;4985654;28;20022;-71
2023/01/27 02:23:42;;;;;;;17.10;8.27;;;;;;;;;;4968211;28;20475;-70
2023/01/27 02:26:16;;;;;;;11.75;7.72;;;;;;;;;;4984754;28;20137;-70
2023/01/27 02:28:42;;;;;;;16.23;8.57;;;;;;;;;;4984216;28;20037;-70
2023/01/27 02:31:07;;;;;;;17.20;8.98;;;;;;;;;;4985375;28;20026;-70
2023/01/27 02:33:33;;;;;;;15.27;9.25;;;;;;;;;;4983790;28;20043;-71
2023/01/27 02:36:11;;;;;;;14.13;8.75;;;;;;;;;;4984409;28;20026;-71
2023/01/27 02:38:48;;;;;;;17.27;8.88;;;;;;;;;;4985624;28;20030;-71
2023/01/27 02:41:18;;;;;;;17.73;9.10;;;;;;;;;;4985524;28;20038;-70
2023/01/27 02:43:47;;;;;;;25.52;10.63;;;;;;;;;;4985205;28;20038;-71
2023/01/27 02:46:13;;;;;;;16.42;9.60;;;;;;;;;;4964205;28;21102;-70
2023/01/27 02:48:38;;;;;;;16.15;9.45;;;;;;;;;;4948236;28;20046;-70
2023/01/27 02:51:03;;;;;;;17.17;8.52;;;;;;;;;;4980982;28;20038;-70
2023/01/27 02:53:29;;;;;;;17.98;8.90;;;;;;;;;;4965932;28;20035;-70
2023/01/27 02:55:54;;;;;;;17.92;9.93;;;;;;;;;;4980689;28;20027;-70
2023/01/27 02:58:19;;;;;;;14.50;8.23;;;;;;;;;;4965747;28;20027;-70
2023/01/27 03:00:44;;;;;;;14.23;7.45;;;;;;;;;;4964683;28;20110;-70
2023/01/27 03:03:10;;;;;;;16.75;6.47;;;;;;;;;;4963940;28;20514;-72
2023/01/27 03:05:35;;;;;;;11.82;6.38;;;;;;;;;;4964625;28;20033;-70
2023/01/27 03:08:00;;;;;;;11.00;6.07;;;;;;;;;;4964130;28;20480;-71
2023/01/27 03:10:26;;;;;;;11.82;6.15;;;;;;;;;;4966216;28;20038;-70
2023/01/27 03:12:51;;;;;;;12.50;6.82;;;;;;;;;;4965620;28;20047;-70
2023/01/27 03:18:11;;;;;;;11.52;6.70;;;;;;;;;;4964400;28;20034;-70
2023/01/27 03:20:37;;;;;;;12.52;6.82;;;;;;;;;;4965378;28;20106;-70
2023/01/27 03:23:02;;;;;;;14.10;7.55;;;;;;;;;;4948090;28;20110;-70
2023/01/27 03:25:28;;;;;;;12.55;7.47;;;;;;;;;;4965006;28;20030;-71
2023/01/27 03:27:53;;;;;;;10.10;5.93;;;;;;;;;;4965942;28;20023;-71
2023/01/27 03:30:21;;;;;;;12.93;6.35;;;;;;;;;;4947599;28;20440;-72
2023/01/27 03:32:53;;;;;;;9.13;5.63;;;;;;;;;;4954129;28;20038;-74
2023/01/27 03:35:19;;;;;;;10.57;5.70;;;;;;;;;;4983621;28;20050;-73
2023/01/27 03:48:42;;;;;;;7.82;5.20;;;;;;;;;;5008048;28;20129;-74
2023/01/27 03:51:10;;;;;;;7.93;5.15;;;;;;;;;;5008157;28;20037;-73
2023/01/27 03:53:38;;;;;;;8.05;4.70;;;;;;;;;;5007995;28;20343;-74
2023/01/27 03:56:04;;;;;;;11.25;5.00;;;;;;;;;;5006376;28;20026;-74
2023/01/27 03:58:31;;;;;;;9.07;4.68;;;;;;;;;;5007711;28;20022;-73
2023/01/27 04:01:01;;;;;;;8.73;4.88;;;;;;;;;;4973871;28;20106;-73
2023/01/27 04:09:03;;;;;;;8.82;4.57;;;;;;;;;;5007274;28;20092;-74
2023/01/27 04:14:33;;;;;;;9.13;4.70;;;;;;;;;;4965326;28;20068;-73
2023/01/27 04:17:06;;;;;;;7.47;4.00;;;;;;;;;;4949934;28;20591;-74
2023/01/27 04:19:34;;;;;;;8.43;4.70;;;;;;;;;;4986703;28;20045;-73
2023/01/27 04:22:00;;;;;;;8.88;4.95;;;;;;;;;;5005586;28;20064;-72
2023/01/27 04:24:28;;;;;;;12.38;4.68;;;;;;;;;;5007483;28;20050;-73
2023/01/27 04:26:54;;;;;;;9.00;5.15;;;;;;;;;;5004977;28;20099;-73
2023/01/27 04:29:21;;;;;;;8.50;5.25;;;;;;;;;;4989525;28;20026;-73
2023/01/27 04:31:46;;;;;;;8.38;5.07;;;;;;;;;;5007263;28;20085;-73
2023/01/27 04:34:12;;;;;;;9.88;4.80;;;;;;;;;;4989613;28;20402;-74
2023/01/27 04:36:38;;;;;;;9.27;4.55;;;;;;;;;;5007303;28;20486;-73
2023/01/27 04:39:06;;;;;;;9.15;5.40;;;;;;;;;;5007043;28;20060;-73
2023/01/27 04:41:32;;;;;;;8.63;4.88;;;;;;;;;;5007798;28;20074;-73
2023/01/27 04:43:57;;;;;;;8.45;4.15;;;;;;;;;;5000718;28;20042;-73
2023/01/27 04:46:22;;;;;;;5.95;4.20;;;;;;;;;;4994150;28;20475;-73
2023/01/27 04:48:48;;;;;;;7.30;4.35;;;;;;;;;;5006772;28;20044;-73
2023/01/27 04:51:15;;;;;;;6.90;4.03;;;;;;;;;;5007582;28;20037;-73
2023/01/27 04:53:42;;;;;;;8.27;4.65;;;;;;;;;;5004558;28;20038;-73
2023/01/27 04:56:15;;;;;;;9.18;4.47;;;;;;;;;;5007451;28;20022;-74
2023/01/27 04:58:41;;;;;;;6.82;3.72;;;;;;;;;;5006971;28;20026;-75
2023/01/27 05:01:06;;;;;;;8.00;4.15;;;;;;;;;;5007611;28;20022;-74
2023/01/27 05:03:31;;;;;;;8.05;4.38;;;;;;;;;;5006662;28;20053;-74
2023/01/27 05:05:56;;;;;;;8.68;4.30;;;;;;;;;;5007069;28;20171;-73
2023/01/27 05:08:22;;;;;;;8.13;4.00;;;;;;;;;;5006672;28;20048;-73
2023/01/27 05:10:51;;;;;;;8.52;4.32;;;;;;;;;;5007327;28;20083;-70
2023/01/27 05:13:16;;;;;;;6.28;3.50;;;;;;;;;;5006706;28;20034;-70
2023/01/27 05:15:41;;;;;;;8.18;3.90;;;;;;;;;;5005088;28;20065;-71
2023/01/27 05:18:07;;;;;;;6.78;3.45;;;;;;;;;;5004731;28;20034;-70
2023/01/27 05:20:32;;;;;;;8.90;3.67;;;;;;;;;;5005170;28;20022;-71
2023/01/27 05:23:34;;;;;;;7.40;3.53;;;;;;;;;;5006047;28;20093;-71
2023/01/27 05:25:43;;;;;;;7.00;3.72;;;;;;;;;;5006279;28;20364;-70
2023/01/27 05:28:08;;;;;;;6.22;3.42;;;;;;;;;;5005155;28;20025;-71
2023/01/27 05:30:34;;;;;;;7.25;3.85;;;;;;;;;;5004699;28;20476;-75
2023/01/27 05:32:59;;;;;;;8.85;3.40;;;;;;;;;;5004767;28;20026;-75
2023/01/27 05:35:24;;;;;;;7.22;3.15;;;;;;;;;;4988209;28;20048;-75
2023/01/27 05:37:50;;;;;;;6.00;3.10;;;;;;;;;;5005792;28;20029;-74
2023/01/27 05:40:15;;;;;;;5.55;2.97;;;;;;;;;;5006163;28;20029;-74
2023/01/27 05:42:43;;;;;;;6.88;2.90;;;;;;;;;;5006260;28;20514;-72
2023/01/27 05:45:08;;;;;;;6.82;2.65;;;;;;;;;;4989295;28;20025;-72
2023/01/27 05:47:33;;;;;;;4.97;2.75;;;;;;;;;;5002452;28;20022;-70
2023/01/27 05:49:59;;;;;;;5.18;2.53;;;;;;;;;;5003858;28;20053;-70
2023/01/27 05:52:24;;;;;;;6.43;2.53;;;;;;;;;;5004041;28;20117;-70
2023/01/27 05:54:49;;;;;;;8.27;3.20;;;;;;;;;;5004179;28;20041;-70
2023/01/27 05:57:14;;;;;;;9.38;2.75;;;;;;;;;;5004513;28;20026;-69
2023/01/27 05:59:42;;;;;;;6.38;2.40;;;;;;;;;;5005661;28;20034;-70
2023/01/27 06:02:14;;;;;;;4.95;2.50;;;;;;;;;;5004062;28;20406;-70
2023/01/27 06:04:39;;;;;;;6.93;2.70;;;;;;;;;;5003623;28;20030;-70
2023/01/27 06:07:04;;;;;;;6.35;2.63;;;;;;;;;;5005363;28;20503;-72
2023/01/27 06:09:30;;;;;;;6.68;2.90;;;;;;;;;;5005440;28;20128;-70
2023/01/27 06:11:55;;;;;;;6.00;2.50;;;;;;;;;;5005463;28;20025;-70
2023/01/27 06:14:20;;;;;;;7.65;2.97;;;;;;;;;;5005521;28;20128;-69
2023/01/27 06:16:46;;;;;;;8.82;3.45;;;;;;;;;;5003840;28;20487;-70
2023/01/27 06:19:11;;;;;;;7.72;2.92;;;;;;;;;;5004053;28;20037;-70
2023/01/27 06:21:36;;;;;;;6.95;2.92;;;;;;;;;;5005235;28;20038;-71
2023/01/27 06:24:03;;;;;;;7.65;3.17;;;;;;;;;;5005665;28;20030;-71
2023/01/27 06:26:28;;;;;;;7.03;2.60;;;;;;;;;;5004237;28;20332;-71
2023/01/27 06:28:54;;;;;;;9.13;2.90;;;;;;;;;;5005404;28;20026;-70
2023/01/27 06:31:20;;;;;;;6.15;2.50;;;;;;;;;;4987906;28;20111;-70
2023/01/27 06:33:46;;;;;;;8.38;3.08;;;;;;;;;;5005008;28;20041;-72
2023/01/27 06:36:12;;;;;;;5.40;2.30;;;;;;;;;;5005437;28;20594;-70
2023/01/27 06:38:37;;;;;;;5.22;2.40;;;;;;;;;;5003290;28;20030;-69
2023/01/27 06:41:03;;;;;;;4.45;2.50;;;;;;;;;;5005405;28;20117;-70
2023/01/27 06:43:30;;;;;;;7.13;2.75;;;;;;;;;;4999445;28;20042;-70
2023/01/27 06:45:59;;;;;;;7.10;2.80;;;;;;;;;;4987927;28;20392;-69
2023/01/27 06:48:24;;;;;;;5.90;2.20;;;;;;;;;;5004993;28;20046;-70
2023/01/27 06:50:51;;;;;;;5.60;2.75;;;;;;;;;;5004697;28;20037;-71
2023/01/27 06:53:16;;;;;;;4.97;2.53;;;;;;;;;;5003882;28;20042;-74
2023/01/27 06:55:44;;;;;;;7.65;2.35;;;;;;;;;;5003230;28;20120;-74
2023/01/27 06:58:12;;;;;;;6.47;2.42;;;;;;;;;;4987366;28;20119;-75
2023/01/27 07:00:38;;;;;;;6.75;2.58;;;;;;;;;;5003263;28;20096;-74
2023/01/27 07:03:04;;;;;;;6.05;2.55;;;;;;;;;;5003424;28;20026;-75
2023/01/27 07:05:29;;;;;;;6.13;2.50;;;;;;;;;;5002922;28;20018;-74
2023/01/27 07:07:54;;;;;;;5.53;2.20;;;;;;;;;;5005311;28;20483;-74
2023/01/27 07:10:20;;;;;;;7.28;2.38;;;;;;;;;;4986629;28;20034;-73
2023/01/27 07:12:45;;;;;;;5.15;2.30;;;;;;;;;;5005075;28;20109;-74
2023/01/27 07:15:13;;;;;;;7.97;2.00;;;;;;;;;;5004950;28;20553;-74
2023/01/27 07:17:38;;;;;;;8.93;2.20;;;;;;;;;;4990759;28;20026;-74
2023/01/27 07:20:05;;;;;;;5.50;2.33;;;;;;;;;;5009047;28;20387;-74
2023/01/27 07:22:30;;;;;;;9.15;2.65;;;;;;;;;;5007371;28;20026;-74
2023/01/27 07:24:55;;;;;;;8.82;2.67;;;;;;;;;;5006960;28;20022;-73
2023/01/27 07:27:21;;;;;;;9.70;2.72;;;;;;;;;;5007050;28;20030;-74
2023/01/27 07:29:46;;;;;;;6.35;2.47;;;;;;;;;;5008373;28;20022;-74
2023/01/27 07:32:16;;;;;;;3.90;2.00;;;;;;;;;;4990523;28;20088;-72
2023/01/27 07:34:42;;;;;;;6.82;2.65;;;;;;;;;;5008273;28;20037;-74
2023/01/27 07:37:07;;;;;;;6.10;2.45;;;;;;;;;;5006500;28;20394;-73
2023/01/27 07:39:32;;;;;;;7.32;2.50;;;;;;;;;;5007046;28;20026;-75
2023/01/27 07:42:00;;;;;;;5.97;3.00;;;;;;;;;;5006526;28;20045;-73
2023/01/27 07:44:25;;;;;;;7.32;2.80;;;;;;;;;;4996583;28;20047;-74
2023/01/27 07:46:57;;;;;;;6.25;2.85;;;;;;;;;;4998623;28;20038;-75
2023/01/27 07:49:22;;;;;;;9.15;3.17;;;;;;;;;;5008027;28;20070;-70
2023/01/27 07:51:47;;;;;;;11.32;3.60;;;;;;;;;;5008798;28;20026;-70
2023/01/27 07:54:13;;;;;;;5.22;3.10;;;;;;;;;;5006127;28;20029;-71
2023/01/27 07:56:38;;;;;;;5.88;3.47;;;;;;;;;;5008206;28;20022;-70
2023/01/27 07:59:03;;;;;;;8.82;3.42;;;;;;;;;;4989205;28;20104;-70
2023/01/27 08:01:29;;;;;;;5.47;2.97;;;;;;;;;;5007967;28;20113;-70
2023/01/27 08:03:54;;;;;;;7.18;3.08;;;;;;;;;;5006603;28;20038;-70
2023/01/27 08:06:19;;;;;;;6.93;3.22;;;;;;;;;;5007657;28;20033;-70
2023/01/27 08:08:44;;;;;;;10.77;3.97;;;;;;;;;;5007959;28;20069;-71
2023/01/27 08:11:11;;;;;;;7.70;2.83;;;;;;;;;;5006275;28;20030;-70
2023/01/27 08:13:39;;;;;;;8.55;3.30;;;;;;;;;;5005926;28;20096;-71
2023/01/27 08:16:05;;;;;;;11.45;3.97;;;;;;;;;;5007619;28;20022;-70
2023/01/27 08:18:32;;;;;;;12.10;3.50;;;;;;;;;;4989486;28;20105;-71
2023/01/27 08:21:02;;;;;;;7.28;3.58;;;;;;;;;;5006469;28;20062;-71
2023/01/27 08:23:27;;;;;;;7.13;3.08;;;;;;;;;;5005670;28;20505;-71
2023/01/27 08:25:54;;;;;;;5.55;3.20;;;;;;;;;;5008008;28;20032;-71
2023/01/27 08:28:20;;;;;;;5.88;3.35;;;;;;;;;;5006815;28;20105;-70
2023/01/27 08:30:45;;;;;;;7.80;3.20;;;;;;;;;;5007551;28;20076;-70
2023/01/27 08:33:11;;;;;;;8.50;3.55;;;;;;;;;;5007116;28;20490;-70
2023/01/27 08:35:37;;;;;;;6.35;3.58;;;;;;;;;;4999197;28;20394;-70
2023/01/27 08:38:03;;;;;;;7.95;3.50;;;;;;;;;;5021348;28;22690;-70
2023/01/27 08:40:28;;;;;;;4.93;3.45;;;;;;;;;;5006944;28;20068;-71
2023/01/27 08:42:54;;;;;;;8.30;3.17;;;;;;;;;;5007362;28;20053;-70
2023/01/27 08:45:19;;;;;;;14.38;3.83;;;;;;;;;;4986988;28;20026;-71
2023/01/27 08:47:44;;;;;;;12.07;4.03;;;;;;;;;;5003149;28;20033;-71
2023/01/27 08:50:12;;;;;;;6.93;3.50;;;;;;;;;;5006800;28;20049;-70
2023/01/27 08:52:37;;;;;;;9.52;3.70;;;;;;;;;;5007453;28;20034;-73
2023/01/27 08:55:03;;;;;;;6.85;3.83;;;;;;;;;;5006852;28;20042;-74
2023/01/27 08:57:31;;;;;;;6.53;2.95;;;;;;;;;;5006148;28;20475;-71
2023/01/27 08:59:56;;;;;;;8.77;3.28;;;;;;;;;;5006784;28;20173;-70
2023/01/27 09:02:23;;;;;;;7.00;2.90;;;;;;;;;;5005517;28;20032;-75
2023/01/27 09:04:48;;;;;;;9.70;3.05;;;;;;;;;;5005327;28;20030;-70
2023/01/27 09:07:13;;;;;;;9.60;3.20;;;;;;;;;;5005116;28;20030;-74
2023/01/27 09:09:39;;;;;;;7.28;2.60;;;;;;;;;;5006364;28;20601;-70
2023/01/27 09:12:04;;;;;;;5.28;3.05;;;;;;;;;;5006804;28;20101;-73
2023/01/27 09:14:29;;;;;;;5.20;2.60;;;;;;;;;;5006229;28;20042;-73
2023/01/27 09:16:55;;;;;;;5.60;2.65;;;;;;;;;;5006801;28;20112;-74
2023/01/27 09:19:20;;;;;;;6.93;2.95;;;;;;;;;;5006451;28;20493;-75
2023/01/27 09:21:45;;;;;;;6.32;2.45;;;;;;;;;;4988674;28;20029;-73
2023/01/27 09:24:12;;;;;;;6.47;2.78;;;;;;;;;;5004770;28;20037;-73
2023/01/27 09:26:37;;;;;;;7.68;2.70;;;;;;;;;;5005157;28;20030;-74
2023/01/27 09:29:03;;;;;;;5.65;1.98;;;;;;;;;;5005843;28;20422;-69
2023/01/27 09:31:28;;;;;;;7.35;1.85;;;;;;;;;;4987702;28;20034;-71
2023/01/27 09:33:53;;;;;;;7.50;3.45;;;;;;;;;;5004809;28;20049;-74
2023/01/27 09:36:20;;;;;;;5.32;2.50;;;;;;;;;;5006362;28;20117;-71
2023/01/27 09:38:55;;;;;;;7.03;2.58;;;;;;;;;;5005220;28;20038;-71
2023/01/27 09:41:32;;;;;;;7.60;2.00;;;;;;;;;;5005635;28;20030;-70
2023/01/27 09:44:16;;;;;;;5.30;2.15;;;;;;;;;;4986446;28;20169;-71
2023/01/27 09:46:44;;;;;;;2.08;1.20;;;;;;;;;;4995122;28;20399;-69
2023/01/27 09:49:18;;;;;;;5.22;1.65;;;;;;;;;;5005819;28;20053;-70
2023/01/27 09:51:59;;;;;;;2.80;1.50;;;;;;;;;;5004159;28;20025;-70
2023/01/27 09:54:24;;;;;;;3.45;1.50;;;;;;;;;;4987777;28;20042;-71
2023/01/27 09:56:52;;;;;;;4.53;1.83;;;;;;;;;;5004081;28;20026;-70
2023/01/27 09:59:36;;;;;;;4.93;1.63;;;;;;;;;;5003920;28;20030;-70
2023/01/27 10:02:33;;;;;;;3.08;1.40;;;;;;;;;;5005928;28;20030;-74
2023/01/27 10:05:08;;;;;;;3.88;1.50;;;;;;;;;;4983275;28;20034;-70
2023/01/27 10:07:42;;;;;;;4.13;1.30;;;;;;;;;;5005460;28;20109;-71
2023/01/27 10:10:18;;;;;;;6.13;1.75;;;;;;;;;;5003981;28;20105;-70
2023/01/27 10:12:54;;;;;;;3.08;1.38;;;;;;;;;;5005151;28;20079;-73
2023/01/27 10:15:19;;;;;;;4.32;1.50;;;;;;;;;;5003588;28;20037;-73
2023/01/27 10:17:51;;;;;;;3.58;1.60;;;;;;;;;;5005864;28;20072;-75
2023/01/27 10:20:33;;;;;;;2.10;1.20;;;;;;;;;;5003721;28;20014;-73
2023/01/27 10:23:21;;;;;;;4.93;2.60;;;;;;;;;;4987325;28;20019;-72
2023/01/27 10:25:55;;;;;;;6.32;2.80;;;;;;;;;;4997244;28;20022;-73
2023/01/27 10:28:22;;;;;;;6.18;1.65;;;;;;;;;;5003740;28;20096;-73
2023/01/27 10:30:50;;;;;;;2.92;1.20;;;;;;;;;;5005474;28;20025;-75
2023/01/27 10:33:17;;;;;;;3.10;1.45;;;;;;;;;;5003486;28;20033;-75
2023/01/27 10:35:48;;;;;;;2.72;1.50;;;;;;;;;;5003182;28;20034;-72
2023/01/27 10:38:13;;;;;;;2.55;1.30;;;;;;;;;;5003261;28;20038;-74
2023/01/27 10:41:00;;;;;;;2.92;1.45;;;;;;;;;;5003803;28;20026;-74
2023/01/27 10:43:44;;;;;;;4.03;1.60;;;;;;;;;;4990297;28;20479;-74
2023/01/27 10:46:20;;;;;;;4.82;1.50;;;;;;;;;;4989667;28;20109;-74
2023/01/27 10:48:48;;;;;;;7.78;2.83;;;;;;;;;;5004876;28;20057;-74
2023/01/27 10:51:18;;;;;;;4.88;1.67;;;;;;;;;;5004296;28;20104;-72
2023/01/27 10:53:49;;;;;;;4.65;1.52;;;;;;;;;;5004656;28;20034;-73
2023/01/27 10:56:15;;;;;;;2.95;1.33;;;;;;;;;;5004545;28;20060;-73
2023/01/27 10:58:58;;;;;;;1.63;1.08;;;;;;;;;;5005230;28;20486;-74
2023/01/27 11:01:27;;;;;;;3.38;1.10;;;;;;;;;;4986586;28;20069;-74
2023/01/27 11:04:00;;;;;;;3.47;1.40;;;;;;;;;;5002984;28;20057;-74
2023/01/27 11:06:31;;;;;;;2.00;1.08;;;;;;;;;;5003178;28;20510;-75
2023/01/27 11:09:05;;;;;;;1.90;1.10;;;;;;;;;;5003888;28;20038;-74
2023/01/27 11:11:44;;;;;;;3.45;1.38;;;;;;;;;;5004265;28;20030;-74
2023/01/27 11:14:12;;;;;;;3.45;1.30;;;;;;;;;;5002789;28;20040;-74
2023/01/27 11:16:39;;;;;;;2.58;1.00;;;;;;;;;;5003164;28;20181;-73
2023/01/27 11:19:11;;;;;;;2.47;1.20;;;;;;;;;;5002933;28;20030;-75
2023/01/27 11:21:37;;;;;;;5.60;1.98;;;;;;;;;;5002782;28;20030;-74
2023/01/27 11:24:21;;;;;;;3.17;1.20;;;;;;;;;;5004843;28;20029;-74
2023/01/27 11:26:59;;;;;;;7.32;1.35;;;;;;;;;;5002928;28;20022;-70
2023/01/27 11:29:27;;;;;;;3.88;1.20;;;;;;;;;;5004492;28;20411;-70
2023/01/27 11:31:52;;;;;;;3.25;1.38;;;;;;;;;;5004232;28;20112;-71
2023/01/27 11:34:18;;;;;;;2.15;1.20;;;;;;;;;;5004454;28;20128;-70
2023/01/27 11:36:43;;;;;;;3.47;1.90;;;;;;;;;;5002126;28;20380;-71
2023/01/27 11:39:12;;;;;;;2.45;1.23;;;;;;;;;;5004401;28;20386;-71
2023/01/27 11:41:44;;;;;;;1.10;0.82;;;;;;;;;;5002453;28;20391;-70
2023/01/27 11:44:18;;;;;;;2.78;1.20;;;;;;;;;;4984751;28;20038;-71
2023/01/27 11:46:44;;;;;;;1.92;0.80;;;;;;;;;;4992157;28;20030;-70
2023/01/27 11:49:10;;;;;;;2.92;1.13;;;;;;;;;;5003157;28;20092;-70
2023/01/27 11:51:39;;;;;;;2.03;1.50;;;;;;;;;;5003716;28;20416;-71
2023/01/27 11:54:10;;;;;;;5.03;1.35;;;;;;;;;;5002178;28;20041;-70
2023/01/27 11:56:36;;;;;;;1.97;0.90;;;;;;;;;;5002274;28;20387;-70
2023/01/27 11:59:09;;;;;;;1.98;0.70;;;;;;;;;;5002925;28;20026;-70
2023/01/27 12:01:52;;;;;;;1.48;0.90;;;;;;;;;;5003757;28;20042;-70
2023/01/27 12:04:36;;;;;;;3.08;0.80;;;;;;;;;;5006120;28;20390;-71
2023/01/27 12:07:06;;;;;;;1.23;0.60;;;;;;;;;;5007736;28;20026;-70
2023/01/27 12:09:40;;;;;;;2.83;0.90;;;;;;;;;;5005721;28;20433;-71
2023/01/27 12:12:10;;;;;;;1.02;0.80;;;;;;;;;;5006199;28;20032;-73
2023/01/27 12:14:35;;;;;;;1.00;0.60;;;;;;;;;;5006076;28;20048;-73
2023/01/27 12:17:01;;;;;;;1.27;0.50;;;;;;;;;;5008260;28;20486;-75
2023/01/27 12:19:30;;;;;;;2.28;0.60;;;;;;;;;;5005998;28;20041;-73
2023/01/27 12:21:58;;;;;;;1.85;0.70;;;;;;;;;;5005893;28;20034;-74
2023/01/27 12:24:29;;;;;;;1.42;0.70;;;;;;;;;;5006139;28;20399;-76
2023/01/27 12:26:55;;;;;;;1.55;0.50;;;;;;;;;;5007441;28;20037;-73
2023/01/27 12:29:25;;;;;;;1.23;0.73;;;;;;;;;;5006363;28;20052;-76
2023/01/27 12:31:55;;;;;;;1.10;0.60;;;;;;;;;;4989746;28;20029;-74
2023/01/27 12:34:24;;;;;;;2.30;0.70;;;;;;;;;;5005830;28;20269;-71
2023/01/27 12:36:50;;;;;;;1.33;0.63;;;;;;;;;;5005890;28;20490;-70
2023/01/27 12:39:34;;;;;;;1.05;0.70;;;;;;;;;;5005540;28;20037;-74
2023/01/27 12:41:59;;;;;;;0.73;0.50;;;;;;;;;;5000321;28;20030;-75
2023/01/27 12:44:27;;;;;;;0.90;0.68;;;;;;;;;;4986331;28;20039;-71
2023/01/27 12:47:03;;;;;;;1.42;0.73;;;;;;;;;;4997601;28;20038;-72
2023/01/27 12:49:39;;;;;;;1.50;0.70;;;;;;;;;;4988485;28;20052;-71
2023/01/27 12:52:07;;;;;;;1.42;0.63;;;;;;;;;;4988880;28;20494;-70
2023/01/27 12:54:33;;;;;;;2.42;0.80;;;;;;;;;;5006699;28;20486;-70
2023/01/27 12:57:03;;;;;;;1.30;0.80;;;;;;;;;;5005685;28;20053;-73
2023/01/27 12:59:28;;;;;;;1.50;0.70;;;;;;;;;;5006915;28;20304;-74
2023/01/27 13:02:12;;;;;;;2.05;0.82;;;;;;;;;;5005577;28;20486;-74
2023/01/27 13:04:37;;;;;;;6.70;0.70;;;;;;;;;;5005020;28;20033;-74
2023/01/27 13:07:05;;;;;;;1.45;1.00;;;;;;;;;;5006750;28;20053;-74
2023/01/27 13:09:32;;;;;;;1.58;1.02;;;;;;;;;;4988354;28;20026;-74
2023/01/27 13:12:01;;;;;;;2.45;1.33;;;;;;;;;;5007152;28;20051;-75
2023/01/27 13:14:31;;;;;;;1.60;0.90;;;;;;;;;;5004372;28;20454;-74
2023/01/27 13:16:57;;;;;;;2.00;1.10;;;;;;;;;;5006511;28;20030;-73
2023/01/27 13:19:33;;;;;;;1.60;0.88;;;;;;;;;;5006267;28;20026;-73
2023/01/27 13:21:59;;;;;;;1.90;0.60;;;;;;;;;;5004757;28;20106;-73
2023/01/27 13:24:37;;;;;;;1.33;0.80;;;;;;;;;;5006697;28;20534;-71
2023/01/27 13:27:03;;;;;;;1.75;0.70;;;;;;;;;;5006505;28;20050;-70
2023/01/27 13:29:32;;;;;;;3.58;0.70;;;;;;;;;;5006591;28;20036;-75
2023/01/27 13:32:02;;;;;;;3.58;0.80;;;;;;;;;;5006105;28;20041;-74
2023/01/27 13:34:33;;;;;;;1.65;0.90;;;;;;;;;;5004366;28;20038;-74
2023/01/27 13:37:13;;;;;;;0.90;0.63;;;;;;;;;;5006424;28;20092;-74
2023/01/27 13:40:00;;;;;;;1.00;0.80;;;;;;;;;;5005646;28;20032;-74
2023/01/27 13:42:28;;;;;;;1.13;0.70;;;;;;;;;;4994269;28;20030;-74
2023/01/27 13:45:12;;;;;;;1.00;0.60;;;;;;;;;;4984806;28;20088;-73
2023/01/27 13:47:47;;;;;;;1.58;1.00;;;;;;;;;;4986364;28;20046;-74
2023/01/27 13:50:23;;;;;;;1.52;0.65;;;;;;;;;;4986053;28;20034;-73
2023/01/27 13:52:52;;;;;;;2.83;0.80;;;;;;;;;;4984869;28;20034;-73
2023/01/27 13:55:25;;;;;;;1.88;0.88;;;;;;;;;;4986333;28;20341;-72
2023/01/27 13:57:59;;;;;;;1.10;0.70;;;;;;;;;;4984694;28;20031;-74
2023/01/27 14:00:34;;;;;;;1.42;0.70;;;;;;;;;;4985706;28;20092;-73
2023/01/27 14:03:20;;;;;;;0.82;0.70;;;;;;;;;;4984533;28;20034;-73
2023/01/27 14:05:52;;;;;;;1.25;0.77;;;;;;;;;;4986115;28;20026;-74
2023/01/27 14:08:20;;;;;;;1.00;0.80;;;;;;;;;;4986225;28;20037;-73
2023/01/27 14:11:04;;;;;;;2.10;1.27;;;;;;;;;;4984770;28;20026;-75
2023/01/27 14:13:39;;;;;;;2.95;1.00;;;;;;;;;;4985770;28;20038;-74
2023/01/27 14:16:05;;;;;;;0.60;0.60;;;;;;;;;;4984395;28;20030;-73
2023/01/27 14:18:35;;;;;;;1.70;0.60;;;;;;;;;;4984316;28;20041;-74
2023/01/27 14:21:18;;;;;;;1.98;1.02;;;;;;;;;;4986119;28;20038;-74
2023/01/27 14:24:09;;;;;;;1.23;0.73;;;;;;;;;;4984139;28;20057;-74
2023/01/27 14:26:44;;;;;;;1.67;0.70;;;;;;;;;;4983439;28;20030;-75
2023/01/27 14:29:20;;;;;;;4.25;3.00;;;;;;;;;;4967973;28;20019;-75
2023/01/27 14:31:54;;;;;;;3.30;1.52;;;;;;;;;;4986077;28;20563;-74
2023/01/27 14:34:25;;;;;;;9.82;1.50;;;;;;;;;;4983525;28;20053;-74
2023/01/27 14:37:09;;;;;;;2.20;1.30;;;;;;;;;;4985545;28;20033;-71
2023/01/27 14:40:05;;;;;;;3.97;1.05;;;;;;;;;;4985146;28;20037;-70
2023/01/27 14:42:40;;;;;;;2.65;1.27;;;;;;;;;;4988479;28;20076;-71
2023/01/27 14:45:06;;;;;;;5.10;1.50;;;;;;;;;;4966910;28;20027;-70
2023/01/27 14:47:39;;;;;;;2.80;1.10;;;;;;;;;;5000815;28;20075;-70
2023/01/27 14:50:23;;;;;;;2.63;1.00;;;;;;;;;;5004152;28;20458;-70
2023/01/27 14:53:01;;;;;;;1.52;0.90;;;;;;;;;;4983863;28;20031;-71
2023/01/27 14:55:29;;;;;;;1.73;1.00;;;;;;;;;;5004593;28;20145;-70
2023/01/27 14:57:57;;;;;;;5.88;1.10;;;;;;;;;;5003381;28;20026;-71
2023/01/27 15:00:49;;;;;;;2.72;1.35;;;;;;;;;;5005125;28;20502;-70
2023/01/27 15:03:32;;;;;;;3.08;1.00;;;;;;;;;;5001775;28;20121;-69
2023/01/27 15:06:01;;;;;;;3.42;1.40;;;;;;;;;;4986614;28;20029;-71
2023/01/27 15:08:39;;;;;;;4.50;1.40;;;;;;;;;;5002814;28;20018;-73
2023/01/27 15:11:19;;;;;;;3.22;1.25;;;;;;;;;;5002974;28;20049;-73
2023/01/27 15:13:54;;;;;;;1.67;1.35;;;;;;;;;;5003248;28;20376;-74
2023/01/27 15:16:25;;;;;;;3.75;1.35;;;;;;;;;;5003070;28;20030;-74
2023/01/27 15:18:56;;;;;;;2.20;1.30;;;;;;;;;;4986837;28;20251;-74